Time;durP1;ratioP1;P1;durP2;ratioP2;P2;SDS_P1;SDS_P2;PMS_P1;PMS_P2;Temp;Humidity;BMP_temperature;BMP_pressure;BME280_temperature;BME280_humidity;BME280_pressure;Samples;Min_cycle;Max_cycle;Signal;HPM_P1;HPM_P2
2021/10/11 00:01:31;;;;;;;36.17;26.10;;;11.50;99.90;;;11.32;100.00;102512.06;4184244;28;20025;-72
2021/10/11 00:03:32;;;;;;;34.60;25.42;;;11.50;99.90;;;11.27;100.00;102516.03;4185409;28;20087;-72
2021/10/11 00:05:33;;;;;;;30.65;23.27;;;11.50;99.90;;;11.12;100.00;102510.13;4184244;28;20032;-72
2021/10/11 00:07:34;;;;;;;34.28;26.13;;;11.50;99.90;;;11.16;100.00;102510.75;4185639;28;20391;-72
2021/10/11 00:09:36;;;;;;;36.58;27.42;;;11.50;99.90;;;11.34;100.00;102506.69;4183995;28;20053;-72
2021/10/11 00:11:37;;;;;;;37.60;27.05;;;11.50;99.90;;;11.44;100.00;102511.13;4184112;28;20067;-72
2021/10/11 00:13:38;;;;;;;30.38;22.52;;;11.50;99.90;;;11.25;100.00;102502.97;4185452;28;20396;-72
2021/10/11 00:15:39;;;;;;;34.08;27.02;;;11.50;99.90;;;11.42;100.00;102505.13;4184149;28;20528;-72
2021/10/11 00:17:41;;;;;;;41.35;29.00;;;11.50;99.90;;;11.25;100.00;102502.97;4184127;28;20083;-72
2021/10/11 00:19:43;;;;;;;36.42;24.80;;;11.50;99.90;;;11.22;100.00;102510.28;4167338;28;20101;-72
2021/10/11 00:21:45;;;;;;;34.83;24.05;;;11.40;99.90;;;11.13;100.00;102511.81;4185338;28;20511;-73
2021/10/11 00:23:46;;;;;;;29.95;22.27;;;11.40;99.90;;;11.06;100.00;102507.94;4184105;28;20025;-72
2021/10/11 00:25:48;;;;;;;29.67;23.58;;;11.40;99.90;;;11.00;100.00;102501.34;4184816;28;20048;-72
2021/10/11 00:27:48;;;;;;;35.30;24.98;;;11.30;99.90;;;11.06;100.00;102500.88;4185076;28;20029;-72
2021/10/11 00:29:49;;;;;;;37.75;27.95;;;11.30;99.90;;;11.12;100.00;102510.13;4185236;28;20025;-72
2021/10/11 00:31:50;;;;;;;32.35;23.30;;;11.40;99.90;;;11.01;100.00;102505.66;4185232;28;20116;-72
2021/10/11 00:33:51;;;;;;;36.92;28.27;;;11.30;99.90;;;10.98;100.00;102511.19;4185120;28;20029;-72
2021/10/11 00:35:52;;;;;;;33.60;23.15;;;11.30;99.90;;;10.91;100.00;102502.03;4184938;28;20444;-72
2021/10/11 00:37:53;;;;;;;44.40;27.98;;;11.30;99.90;;;10.83;100.00;102501.75;4185187;28;20025;-72
2021/10/11 00:39:54;;;;;;;34.35;25.73;;;11.20;99.90;;;10.95;100.00;102508.78;4184775;28;20159;-72
2021/10/11 00:41:55;;;;;;;38.03;28.40;;;11.20;99.90;;;11.01;100.00;102510.94;4183807;28;20029;-72
2021/10/11 00:43:59;;;;;;;35.63;24.67;;;11.30;99.90;;;10.97;100.00;102511.28;4184918;28;20064;-72
2021/10/11 00:46:00;;;;;;;29.90;21.73;;;11.20;99.90;;;10.89;100.00;102508.38;4185010;28;20075;-72
2021/10/11 00:48:01;;;;;;;32.00;22.90;;;11.20;99.90;;;10.92;100.00;102514.28;4185078;28;20028;-72
2021/10/11 00:50:02;;;;;;;38.38;27.70;;;11.20;99.90;;;11.08;100.00;102512.16;4184832;28;20056;-72
2021/10/11 00:52:04;;;;;;;35.78;26.95;;;11.20;99.90;;;11.08;100.00;102509.50;4187593;28;20044;-72
2021/10/11 00:54:05;;;;;;;35.53;25.48;;;11.20;99.90;;;10.95;100.00;102510.56;4189153;28;20040;-72
2021/10/11 00:56:06;;;;;;;35.05;26.52;;;11.20;99.90;;;10.95;100.00;102498.22;4189268;28;20025;-72
2021/10/11 00:58:07;;;;;;;44.88;29.48;;;11.20;99.90;;;10.94;100.00;102501.78;4189106;28;20032;-72
2021/10/11 01:00:09;;;;;;;30.42;23.55;;;11.20;99.90;;;10.86;100.00;102509.47;4190282;28;20025;-72
2021/10/11 01:02:10;;;;;;;38.20;26.30;;;11.20;99.90;;;10.84;100.00;102511.34;4190419;28;20496;-72
2021/10/11 01:04:11;;;;;;;30.67;22.50;;;11.20;99.90;;;10.82;100.00;102502.72;4172653;28;20059;-72
2021/10/11 01:06:13;;;;;;;37.95;25.40;;;11.20;99.90;;;10.85;100.00;102506.91;4190416;28;20031;-72
2021/10/11 01:08:14;;;;;;;37.75;26.85;;;11.10;99.90;;;10.94;100.00;102514.16;4190268;28;20029;-72
2021/10/11 01:10:15;;;;;;;32.95;23.85;;;11.10;99.90;;;10.85;100.00;102510.41;4190121;28;20032;-72
2021/10/11 01:12:16;;;;;;;33.13;23.85;;;11.10;99.90;;;10.69;100.00;102501.97;4190298;28;20111;-72
2021/10/11 01:14:18;;;;;;;39.83;29.45;;;11.10;99.90;;;10.97;100.00;102519.19;4189140;28;20108;-72
2021/10/11 01:16:19;;;;;;;42.47;30.20;;;11.10;99.90;;;10.90;100.00;102512.72;4190135;28;20052;-72
2021/10/11 01:18:20;;;;;;;34.90;26.70;;;11.10;99.90;;;10.88;100.00;102515.44;4190154;28;20557;-72
2021/10/11 01:20:21;;;;;;;36.92;26.65;;;11.20;99.90;;;10.92;100.00;102516.06;4190298;28;20029;-72
2021/10/11 01:22:40;;;;;;;42.20;31.33;;;11.20;99.90;;;10.94;100.00;102515.00;4172415;28;20052;-72
2021/10/11 01:24:41;;;;;;;36.63;25.80;;;11.20;99.90;;;10.82;100.00;102517.69;4188745;28;20028;-72
2021/10/11 01:26:44;;;;;;;35.10;22.90;;;11.20;99.90;;;10.77;100.00;102525.13;4190322;28;20036;-72
2021/10/11 01:28:45;;;;;;;30.45;22.48;;;11.10;99.90;;;10.64;100.00;102513.78;4190303;28;20484;-72
2021/10/11 01:30:46;;;;;;;39.20;25.95;;;11.00;99.90;;;10.54;100.00;102518.94;4190208;28;20029;-72
2021/10/11 01:32:47;;;;;;;35.53;26.00;;;10.90;99.90;;;10.71;100.00;102518.53;4190019;28;20039;-72
2021/10/11 01:34:49;;;;;;;43.50;29.65;;;10.90;99.90;;;10.52;100.00;102529.56;4188914;28;20040;-72
2021/10/11 01:36:50;;;;;;;36.30;24.50;;;10.90;99.90;;;10.52;100.00;102523.44;4190269;28;20033;-72
2021/10/11 01:39:00;;;;;;;41.97;29.17;;;10.90;99.90;;;10.57;100.00;102522.16;4190192;28;20473;-72
2021/10/11 01:41:01;;;;;;;34.40;25.67;;;10.90;99.90;;;10.57;100.00;102513.41;4189985;28;20036;-72
2021/10/11 01:43:02;;;;;;;45.85;33.15;;;10.90;99.90;;;10.83;100.00;102511.47;4190190;28;20029;-72
2021/10/11 01:45:06;;;;;;;36.03;24.42;;;11.00;99.90;;;10.76;100.00;102521.66;4190091;28;20031;-72
2021/10/11 01:47:07;;;;;;;36.83;24.10;;;11.00;99.90;;;10.69;100.00;102516.94;4172413;28;20041;-72
2021/10/11 01:49:08;;;;;;;38.00;24.98;;;11.00;99.90;;;10.55;100.00;102502.97;4188771;28;20029;-72
2021/10/11 01:51:09;;;;;;;30.85;22.23;;;10.90;99.90;;;10.57;100.00;102502.03;4188848;28;20035;-72
2021/10/11 01:53:10;;;;;;;38.58;28.80;;;10.90;99.90;;;10.46;100.00;102492.25;4188865;28;20520;-72
2021/10/11 01:55:11;;;;;;;35.90;24.17;;;10.90;99.90;;;10.47;100.00;102480.75;4189835;28;20088;-72
2021/10/11 01:57:13;;;;;;;44.40;30.23;;;10.90;99.90;;;10.55;100.00;102499.47;4189945;28;20044;-72
2021/10/11 01:59:14;;;;;;;36.67;24.92;;;10.80;99.90;;;10.54;100.00;102497.81;4189980;28;20029;-72
2021/10/11 02:01:15;;;;;;;37.45;26.05;;;10.80;99.90;;;10.46;100.00;102493.09;4190004;28;20031;-72
2021/10/11 02:03:16;;;;;;;42.45;29.20;;;10.80;99.90;;;10.49;100.00;102492.84;4188036;28;20060;-72
2021/10/11 02:05:17;;;;;;;38.35;25.77;;;10.80;99.90;;;10.57;100.00;102493.13;4187239;28;20021;-72
2021/10/11 02:07:18;;;;;;;44.30;30.08;;;10.80;99.90;;;10.56;100.00;102498.53;4186137;28;20480;-72
2021/10/11 02:09:20;;;;;;;41.72;28.30;;;10.80;99.90;;;10.54;100.00;102492.53;4187058;28;20017;-72
2021/10/11 02:11:21;;;;;;;38.22;26.17;;;10.80;99.90;;;10.55;100.00;102483.66;4187336;28;20506;-72
2021/10/11 02:13:22;;;;;;;49.05;30.85;;;10.80;99.90;;;10.62;100.00;102497.22;4187148;28;20028;-72
2021/10/11 02:15:23;;;;;;;44.25;31.10;;;10.80;99.90;;;10.80;100.00;102494.06;4169480;28;20140;-72
2021/10/11 02:17:24;;;;;;;40.10;28.90;;;11.00;99.90;;;10.69;100.00;102488.75;4185784;28;20136;-72
2021/10/11 02:19:26;;;;;;;41.97;29.05;;;11.00;99.90;;;10.66;100.00;102491.63;4187004;28;20029;-72
2021/10/11 02:21:27;;;;;;;38.70;29.15;;;11.00;99.90;;;10.65;100.00;102499.66;4185820;28;20025;-72
2021/10/11 02:23:28;;;;;;;47.95;33.08;;;11.00;99.90;;;10.75;100.00;102490.91;4186031;28;20053;-72
2021/10/11 02:25:29;;;;;;;45.03;30.92;;;11.00;99.90;;;10.71;100.00;102493.91;4169044;28;20021;-72
2021/10/11 02:27:30;;;;;;;44.40;30.80;;;10.90;99.90;;;10.70;100.00;102489.56;4186996;28;20029;-72
2021/10/11 02:29:31;;;;;;;46.03;32.22;;;10.90;99.90;;;10.74;100.00;102483.13;4185721;28;20463;-72
2021/10/11 02:31:32;;;;;;;46.47;32.83;;;11.00;99.90;;;10.69;100.00;102474.72;4169251;28;20133;-72
2021/10/11 02:33:33;;;;;;;44.55;31.05;;;11.00;99.90;;;10.66;100.00;102485.50;4186989;28;20557;-72
2021/10/11 02:35:34;;;;;;;39.92;28.60;;;11.00;99.90;;;10.61;100.00;102487.63;4185713;28;20116;-72
2021/10/11 02:37:35;;;;;;;44.15;30.00;;;11.00;99.90;;;10.61;100.00;102483.19;4185590;28;20033;-72
2021/10/11 02:39:36;;;;;;;42.92;28.48;;;11.00;99.90;;;10.57;100.00;102478.28;4186616;28;20037;-72
2021/10/11 02:41:37;;;;;;;41.90;28.30;;;10.90;99.90;;;10.59;100.00;102485.13;4186752;28;20025;-72
2021/10/11 02:43:38;;;;;;;47.72;31.70;;;10.90;99.90;;;10.56;100.00;102487.97;4186775;28;20111;-72
2021/10/11 02:45:39;;;;;;;45.15;29.38;;;10.90;99.90;;;10.56;100.00;102485.34;4186612;28;20048;-72
2021/10/11 02:47:40;;;;;;;44.30;30.25;;;10.80;99.90;;;10.52;100.00;102479.44;4186756;28;20036;-72
2021/10/11 02:49:41;;;;;;;44.33;30.45;;;10.80;99.90;;;10.50;100.00;102483.16;4186455;28;20051;-72
2021/10/11 02:51:42;;;;;;;47.00;30.92;;;10.80;99.90;;;10.49;100.00;102473.53;4185408;28;20036;-72
2021/10/11 02:53:49;;;;;;;47.45;31.25;;;10.80;99.90;;;10.44;100.00;102471.25;4186496;28;20100;-72
2021/10/11 02:55:49;;;;;;;46.10;30.85;;;10.80;99.90;;;10.44;100.00;102465.13;4186417;28;20042;-72
2021/10/11 02:57:50;;;;;;;41.70;29.60;;;10.80;99.90;;;10.43;100.00;102468.72;4186540;28;20088;-72
2021/10/11 02:59:51;;;;;;;43.72;30.65;;;10.80;99.90;;;10.43;100.00;102476.63;4186468;28;20039;-72
2021/10/11 03:01:52;;;;;;;41.80;28.38;;;10.80;99.90;;;10.43;100.00;102477.47;4186432;28;20052;-72
2021/10/11 03:03:53;;;;;;;45.38;30.05;;;10.70;99.90;;;10.40;100.00;102466.31;4185364;28;20512;-72
2021/10/11 03:05:54;;;;;;;41.30;29.15;;;10.70;99.90;;;10.36;100.00;102478.06;4186506;28;20017;-72
2021/10/11 03:07:55;;;;;;;40.58;27.67;;;10.60;99.90;;;10.29;100.00;102472.38;4185162;28;20068;-72
2021/10/11 03:09:56;;;;;;;38.15;26.83;;;10.60;99.90;;;10.27;100.00;102471.66;4186128;28;20029;-72
2021/10/11 03:11:57;;;;;;;48.38;31.48;;;10.60;99.90;;;10.31;100.00;102469.63;4186409;28;20056;-72
2021/10/11 03:13:58;;;;;;;46.22;30.75;;;10.60;99.90;;;10.29;100.00;102468.91;4186357;28;20464;-72
2021/10/11 03:15:59;;;;;;;43.97;29.75;;;10.60;99.90;;;10.31;100.00;102477.53;4184863;28;20057;-72
2021/10/11 03:18:00;;;;;;;45.78;30.63;;;10.60;99.90;;;10.26;100.00;102471.75;4186305;28;20028;-72
2021/10/11 03:20:01;;;;;;;40.03;28.20;;;10.60;99.90;;;10.24;100.00;102478.94;4185986;28;20061;-73
2021/10/11 03:22:02;;;;;;;40.30;28.00;;;10.60;99.90;;;10.22;100.00;102479.03;4185088;28;20025;-72
2021/10/11 03:24:04;;;;;;;40.75;26.40;;;10.60;99.90;;;10.17;100.00;102472.44;4184770;28;20031;-72
2021/10/11 03:26:05;;;;;;;40.30;28.10;;;10.50;99.90;;;10.20;100.00;102475.69;4184980;28;20055;-72
2021/10/11 03:28:06;;;;;;;44.75;29.42;;;10.50;99.90;;;10.18;100.00;102472.31;4185950;28;20481;-72
2021/10/11 03:30:07;;;;;;;37.92;26.27;;;10.50;99.90;;;10.13;100.00;102477.06;4184922;28;20025;-72
2021/10/11 03:32:08;;;;;;;43.00;28.40;;;10.50;99.90;;;10.12;100.00;102485.91;4186011;28;20135;-72
2021/10/11 03:34:11;;;;;;;41.42;27.85;;;10.50;99.90;;;10.09;100.00;102482.66;4185973;28;20028;-72
2021/10/11 03:36:12;;;;;;;62.17;28.85;;;10.40;99.90;;;10.08;100.00;102473.91;4185720;28;20028;-72
2021/10/11 03:38:13;;;;;;;42.67;29.10;;;10.40;99.90;;;10.02;100.00;102488.38;4184718;28;20505;-72
2021/10/11 03:40:14;;;;;;;42.80;28.05;;;10.40;99.90;;;10.01;100.00;102489.31;4185587;28;20025;-72
2021/10/11 03:42:15;;;;;;;37.53;25.88;;;10.30;99.90;;;10.05;100.00;102483.81;4172251;28;20033;-72
2021/10/11 03:44:16;;;;;;;35.92;25.45;;;10.30;99.90;;;10.01;100.00;102491.09;4184662;28;20070;-72
2021/10/11 03:46:17;;;;;;;34.17;24.33;;;10.30;99.90;;;9.95;100.00;102488.91;4186042;28;20422;-72
2021/10/11 03:48:18;;;;;;;42.25;28.95;;;10.30;99.90;;;9.88;100.00;102492.94;4184568;28;20029;-72
2021/10/11 03:50:19;;;;;;;35.13;25.40;;;10.30;99.90;;;9.83;100.00;102487.13;4185720;28;20059;-72
2021/10/11 03:52:19;;;;;;;34.97;24.60;;;10.30;99.90;;;9.87;100.00;102492.09;4185586;28;20033;-72
2021/10/11 03:54:20;;;;;;;33.50;23.58;;;10.20;99.90;;;9.91;100.00;102493.56;4185522;28;20029;-72
2021/10/11 03:56:21;;;;;;;33.90;23.88;;;10.20;99.90;;;9.90;100.00;102489.25;4185653;28;20056;-72
2021/10/11 03:58:22;;;;;;;35.97;24.52;;;10.30;99.90;;;9.95;100.00;102494.19;4185813;28;20162;-72
2021/10/11 04:00:23;;;;;;;34.05;23.33;;;10.20;99.90;;;9.95;100.00;102495.03;4184177;28;20033;-72
2021/10/11 04:02:24;;;;;;;36.72;24.95;;;10.40;99.90;;;9.97;100.00;102494.94;4185684;28;20027;-72
2021/10/11 04:04:26;;;;;;;36.35;24.33;;;10.30;99.90;;;10.02;100.00;102488.38;4185577;28;20025;-72
2021/10/11 04:06:27;;;;;;;34.53;25.65;;;10.40;99.90;;;10.00;100.00;102479.72;4185546;28;20017;-72
2021/10/11 04:08:39;;;;;;;35.60;24.17;;;10.40;99.90;;;10.06;100.00;102485.50;4185501;28;20371;-72
2021/10/11 04:10:57;;;;;;;36.00;25.45;;;10.50;99.90;;;10.08;100.00;102479.19;4168817;28;20500;-72
2021/10/11 04:13:04;;;;;;;35.38;25.58;;;10.50;99.90;;;10.13;100.00;102474.44;4178991;28;20060;-72
2021/10/11 04:15:07;;;;;;;36.55;24.70;;;10.60;99.90;;;10.11;100.00;102473.69;4184080;28;20021;-72
2021/10/11 04:17:08;;;;;;;42.92;29.08;;;10.60;99.90;;;10.17;100.00;102486.47;4185269;28;20045;-72
2021/10/11 04:19:09;;;;;;;39.28;26.40;;;10.60;99.90;;;10.21;100.00;102489.72;4185255;28;20060;-72
2021/10/11 04:21:10;;;;;;;36.88;25.60;;;10.60;99.90;;;10.18;100.00;102485.50;4185332;28;20079;-72
2021/10/11 04:23:12;;;;;;;35.58;25.15;;;10.60;99.90;;;10.12;100.00;102493.84;4185156;28;20017;-72
2021/10/11 04:25:12;;;;;;;36.17;23.95;;;10.50;99.90;;;10.08;100.00;102488.88;4185107;28;20157;-72
2021/10/11 04:27:13;;;;;;;36.13;25.55;;;10.50;99.90;;;10.12;100.00;102479.81;4183559;28;20508;-72
2021/10/11 04:29:14;;;;;;;36.00;25.67;;;10.50;99.90;;;10.10;100.00;102481.69;4185201;28;20025;-72
2021/10/11 04:31:15;;;;;;;42.00;26.52;;;10.50;99.90;;;10.13;100.00;102492.00;4185104;28;20108;-72
2021/10/11 04:33:17;;;;;;;38.88;25.70;;;10.50;99.90;;;10.10;100.00;102490.44;4185221;28;20025;-72
2021/10/11 04:35:21;;;;;;;42.08;28.35;;;10.40;99.90;;;10.10;100.00;102492.22;4185159;28;20048;-72
2021/10/11 04:37:22;;;;;;;42.03;25.38;;;10.40;99.90;;;10.09;100.00;102491.41;4185120;28;20033;-72
2021/10/11 04:39:23;;;;;;;34.75;22.77;;;10.40;99.90;;;10.01;100.00;102494.59;4183444;28;20377;-72
2021/10/11 04:41:24;;;;;;;29.30;21.75;;;10.40;99.90;;;10.03;100.00;102497.94;4185139;28;20053;-72
2021/10/11 04:43:25;;;;;;;30.98;21.75;;;10.40;99.90;;;9.94;100.00;102498.63;4185070;28;20050;-72
2021/10/11 04:45:29;;;;;;;38.80;25.63;;;10.40;99.90;;;9.82;100.00;102501.28;4167232;28;20022;-72
2021/10/11 04:47:30;;;;;;;;;;;10.30;99.90;;;9.89;100.00;102505.16;4199527;28;20397;-72
2021/10/11 04:49:31;;;;;;;36.90;26.25;;;10.30;99.90;;;9.91;100.00;102506.75;4185007;28;19916;-72
2021/10/11 04:51:32;;;;;;;35.00;23.85;;;10.30;99.90;;;9.92;100.00;102516.31;4183784;28;20033;-72
2021/10/11 04:53:33;;;;;;;43.58;28.42;;;10.30;99.90;;;9.96;100.00;102517.81;4183815;28;20021;-72
2021/10/11 04:55:34;;;;;;;39.10;24.98;;;10.40;99.90;;;10.01;100.00;102520.94;4184609;28;20501;-72
2021/10/11 04:57:35;;;;;;;31.67;21.95;;;10.40;99.90;;;10.03;100.00;102518.22;4185038;28;20021;-72
2021/10/11 04:59:36;;;;;;;46.22;29.67;;;10.40;99.90;;;10.01;100.00;102513.03;4184854;28;20040;-72
2021/10/11 05:01:37;;;;;;;47.03;29.33;;;10.40;99.90;;;10.13;100.00;102506.06;4184936;28;20032;-72
2021/10/11 05:03:38;;;;;;;41.92;27.80;;;10.50;99.90;;;10.16;100.00;102515.56;4183640;28;20535;-72
2021/10/11 05:05:39;;;;;;;41.40;28.05;;;10.60;99.90;;;10.15;100.00;102500.72;4184989;28;20022;-72
2021/10/11 05:07:40;;;;;;;43.88;27.25;;;10.60;99.90;;;10.16;100.00;102499.72;4184932;28;20104;-72
2021/10/11 05:09:40;;;;;;;40.85;27.27;;;10.60;99.90;;;10.20;100.00;102495.94;4183500;28;20063;-72
2021/10/11 05:11:41;;;;;;;40.58;26.50;;;10.60;99.90;;;10.25;100.00;102507.00;4183587;28;20055;-72
2021/10/11 05:13:42;;;;;;;39.70;26.33;;;10.70;99.90;;;10.32;100.00;102500.31;4184915;28;20087;-72
2021/10/11 05:15:43;;;;;;;38.22;26.25;;;10.70;99.90;;;10.34;100.00;102501.03;4183348;28;20033;-73
2021/10/11 05:17:44;;;;;;;40.47;28.02;;;10.70;99.90;;;10.35;100.00;102500.09;4183625;28;20032;-72
2021/10/11 05:19:45;;;;;;;39.13;26.60;;;10.70;99.90;;;10.21;100.00;102500.28;4184558;28;20040;-72
2021/10/11 05:21:46;;;;;;;39.83;27.00;;;10.70;99.90;;;10.17;100.00;102497.00;4183475;28;20021;-72
2021/10/11 05:23:47;;;;;;;39.40;24.33;;;10.70;99.90;;;10.18;100.00;102505.75;4184558;28;20365;-72
2021/10/11 05:25:48;;;;;;;39.78;25.80;;;10.60;99.90;;;10.13;100.00;102495.53;4183339;28;20480;-72
2021/10/11 05:27:49;;;;;;;38.28;23.90;;;10.60;99.90;;;10.15;100.00;102500.72;4184605;28;20078;-72
2021/10/11 05:29:50;;;;;;;41.10;27.05;;;10.60;99.90;;;10.08;100.00;102495.00;4184639;28;20047;-72
2021/10/11 05:31:52;;;;;;;50.03;29.83;;;10.50;99.90;;;10.12;100.00;102501.75;4183401;28;20496;-72
2021/10/11 05:33:53;;;;;;;37.83;27.23;;;10.50;99.90;;;10.21;100.00;102500.28;4183435;28;20526;-72
2021/10/11 05:35:54;;;;;;;38.85;24.85;;;10.50;99.90;;;10.17;100.00;102498.78;4166598;28;20026;-72
2021/10/11 05:37:55;;;;;;;42.55;28.15;;;10.50;99.90;;;10.20;100.00;102511.75;4183443;28;20047;-72
2021/10/11 05:39:55;;;;;;;39.85;26.38;;;10.50;99.90;;;10.10;100.00;102510.69;4185647;28;20033;-72
2021/10/11 05:41:56;;;;;;;36.65;25.23;;;10.50;99.90;;;10.06;100.00;102517.16;4186442;28;20526;-72
2021/10/11 05:43:57;;;;;;;37.00;23.35;;;10.50;99.90;;;10.07;100.00;102519.66;4186333;28;20025;-72
2021/10/11 05:45:58;;;;;;;34.47;22.85;;;10.50;99.90;;;10.08;100.00;102523.16;4187448;28;20052;-72
2021/10/11 05:47:59;;;;;;;45.40;28.88;;;10.50;99.90;;;10.24;100.00;102515.88;4186399;28;20029;-72
2021/10/11 05:50:01;;;;;;;37.45;25.70;;;10.60;99.90;;;10.23;100.00;102514.19;4187537;28;20025;-72
2021/10/11 05:52:03;;;;;;;45.28;26.63;;;10.70;99.90;;;10.24;100.00;102521.16;4187563;28;20028;-72
2021/10/11 05:54:04;;;;;;;42.88;26.63;;;10.70;99.90;;;10.30;100.00;102520.72;4185981;28;20040;-72
2021/10/11 05:56:05;;;;;;;42.65;28.25;;;10.70;99.90;;;10.53;100.00;102522.50;4187553;28;20032;-72
2021/10/11 05:58:06;;;;;;;49.35;31.85;;;10.80;99.90;;;10.58;100.00;102528.28;4187626;28;20021;-72
2021/10/11 06:00:08;;;;;;;60.17;36.38;;;10.90;99.90;;;10.57;100.00;102528.41;4187225;28;20405;-72
2021/10/11 06:02:09;;;;;;;58.97;36.53;;;10.90;99.90;;;10.69;100.00;102533.63;4187253;28;20035;-72
2021/10/11 06:04:10;;;;;;;53.45;33.50;;;11.00;99.90;;;10.77;100.00;102536.53;4187378;28;20029;-72
2021/10/11 06:06:11;;;;;;;54.47;33.40;;;11.10;99.90;;;10.69;100.00;102532.78;4186176;28;20017;-72
2021/10/11 06:08:12;;;;;;;58.28;35.15;;;11.00;99.90;;;10.83;100.00;102545.78;4187152;28;20052;-72
2021/10/11 06:10:13;;;;;;;56.08;34.78;;;11.10;99.90;;;10.79;100.00;102546.97;4185837;28;20090;-72
2021/10/11 06:12:14;;;;;;;56.53;34.58;;;11.10;99.90;;;10.89;100.00;102551.47;4186020;28;20040;-72
2021/10/11 06:14:15;;;;;;;52.42;33.42;;;11.20;99.90;;;10.88;100.00;102549.78;4187310;28;20076;-72
2021/10/11 06:16:16;;;;;;;54.42;34.92;;;11.20;99.90;;;11.02;100.00;102554.88;4185947;28;20091;-72
2021/10/11 06:18:17;;;;;;;55.17;35.08;;;11.30;99.90;;;11.03;100.00;102561.84;4186990;28;20049;-72
2021/10/11 06:20:18;;;;;;;52.17;33.55;;;11.30;99.90;;;10.89;100.00;102550.63;4187106;28;20163;-72
2021/10/11 06:22:19;;;;;;;52.08;32.70;;;11.30;99.90;;;11.00;100.00;102551.50;4185948;28;20029;-72
2021/10/11 06:24:20;;;;;;;53.90;34.03;;;11.40;99.90;;;11.07;100.00;102554.53;4185691;28;20053;-73
2021/10/11 06:26:21;;;;;;;48.55;31.45;;;11.40;99.90;;;11.00;100.00;102550.66;4186909;28;20017;-72
2021/10/11 06:28:22;;;;;;;64.70;33.42;;;11.40;99.90;;;11.01;100.00;102545.28;4187290;28;20519;-72
2021/10/11 06:30:23;;;;;;;54.65;32.08;;;11.40;99.90;;;10.95;100.00;102550.16;4169240;28;20025;-72
2021/10/11 06:32:24;;;;;;;53.85;34.45;;;11.40;99.90;;;11.04;100.00;102544.19;4186424;28;20063;-72
2021/10/11 06:34:25;;;;;;;65.18;33.45;;;11.50;99.90;;;11.05;100.00;102546.72;4185137;28;20029;-73
2021/10/11 06:36:28;;;;;;;50.50;31.35;;;11.50;99.90;;;11.03;100.00;102553.91;4188350;28;20158;-72
2021/10/11 06:38:30;;;;;;;56.63;32.05;;;11.50;99.90;;;11.05;100.00;102556.47;4187991;28;20040;-73
2021/10/11 06:40:31;;;;;;;52.70;30.77;;;11.50;99.90;;;10.97;100.00;102550.88;4187345;28;20079;-73
2021/10/11 06:42:32;;;;;;;84.80;34.25;;;11.50;99.90;;;11.09;100.00;102553.47;4187688;28;20024;-72
2021/10/11 06:44:33;;;;;;;49.10;31.75;;;11.50;99.90;;;11.12;100.00;102565.59;4187041;28;20029;-73
2021/10/11 06:46:34;;;;;;;58.13;32.22;;;11.60;99.90;;;11.10;100.00;102554.31;4169935;28;20083;-72
2021/10/11 06:48:35;;;;;;;56.33;33.38;;;11.60;99.90;;;11.25;100.00;102562.88;4186265;28;20025;-72
2021/10/11 06:50:36;;;;;;;49.67;31.67;;;11.60;99.90;;;11.24;100.00;102562.03;4186616;28;20035;-73
2021/10/11 06:52:37;;;;;;;68.75;33.53;;;11.70;99.90;;;11.32;100.00;102564.09;4187489;28;20029;-73
2021/10/11 06:54:39;;;;;;;56.53;31.45;;;11.70;99.90;;;11.29;100.00;102564.34;4187214;28;20488;-73
2021/10/11 06:56:40;;;;;;;59.72;34.75;;;11.70;99.90;;;11.19;100.00;102571.25;4187485;28;20040;-73
2021/10/11 06:58:41;;;;;;;83.68;33.85;;;11.70;99.90;;;11.16;100.00;102567.06;4187339;28;20399;-73
2021/10/11 07:00:42;;;;;;;53.45;33.40;;;11.70;99.90;;;11.23;100.00;102570.09;4187592;28;20029;-73
2021/10/11 07:02:43;;;;;;;57.70;31.45;;;11.70;99.90;;;11.28;100.00;102567.91;4186993;28;20033;-73
2021/10/11 07:04:44;;;;;;;48.30;33.20;;;11.80;99.90;;;11.36;100.00;102578.75;4187302;28;20055;-73
2021/10/11 07:06:45;;;;;;;54.00;32.55;;;11.80;99.90;;;11.24;100.00;102563.81;4187050;28;20025;-74
2021/10/11 07:08:47;;;;;;;60.08;32.38;;;11.80;99.90;;;11.40;100.00;102570.47;4187218;28;20017;-73
2021/10/11 07:10:48;;;;;;;55.30;33.45;;;11.80;99.90;;;11.40;100.00;102572.28;4187417;28;20088;-73
2021/10/11 07:12:49;;;;;;;90.78;34.33;;;11.90;99.90;;;11.45;100.00;102576.25;4187136;28;20037;-73
2021/10/11 07:14:50;;;;;;;115.20;33.88;;;11.90;99.90;;;11.47;100.00;102579.59;4186242;28;20036;-73
2021/10/11 07:16:51;;;;;;;64.47;33.83;;;12.00;99.90;;;11.40;100.00;102578.41;4186084;28;20048;-73
2021/10/11 07:18:52;;;;;;;50.28;32.55;;;12.00;99.90;;;11.49;100.00;102585.63;4187511;28;20455;-73
2021/10/11 07:20:53;;;;;;;110.05;32.75;;;12.00;99.90;;;11.43;100.00;102591.38;4169391;28;20108;-73
2021/10/11 07:22:54;;;;;;;51.75;30.85;;;12.00;99.90;;;11.51;100.00;102596.06;4187073;28;20032;-73
2021/10/11 07:24:55;;;;;;;71.53;32.22;;;12.10;99.90;;;11.45;100.00;102583.34;4186194;28;20017;-73
2021/10/11 07:26:56;;;;;;;48.45;32.85;;;12.10;99.90;;;11.61;100.00;102592.63;4186281;28;20055;-73
2021/10/11 07:28:57;;;;;;;58.78;32.33;;;12.20;99.90;;;11.59;100.00;102588.41;4186234;28;20029;-73
2021/10/11 07:30:58;;;;;;;43.28;28.75;;;12.10;99.90;;;11.58;100.00;102599.94;4186219;28;20158;-74
2021/10/11 07:33:00;;;;;;;48.45;32.75;;;12.20;99.90;;;11.60;100.00;102588.28;4184612;28;20056;-73
2021/10/11 07:35:02;;;;;;;54.17;32.60;;;12.20;99.90;;;11.69;100.00;102592.03;4186114;28;20024;-73
2021/10/11 07:37:03;;;;;;;48.38;30.90;;;12.30;99.90;;;11.62;100.00;102593.44;4184831;28;20037;-73
2021/10/11 07:39:04;;;;;;;52.75;33.13;;;12.30;99.90;;;11.74;100.00;102594.38;4185702;28;20128;-73
2021/10/11 07:41:05;;;;;;;47.10;32.50;;;12.30;99.90;;;11.70;100.00;102593.75;4185670;28;20032;-74
2021/10/11 07:43:07;;;;;;;59.65;34.50;;;12.40;99.90;;;11.78;100.00;102594.00;4184100;28;20030;-74
2021/10/11 07:45:08;;;;;;;57.38;32.58;;;12.40;99.90;;;11.86;100.00;102607.47;4184512;28;20021;-74
2021/10/11 07:47:09;;;;;;;52.03;32.42;;;12.50;99.90;;;11.89;100.00;102596.63;4185903;28;20550;-74
2021/10/11 07:49:10;;;;;;;64.90;32.65;;;12.60;99.90;;;11.96;100.00;102603.16;4185611;28;20395;-74
2021/10/11 07:51:11;;;;;;;48.70;31.77;;;12.60;99.90;;;11.91;100.00;102601.81;4184546;28;20104;-74
2021/10/11 07:53:13;;;;;;;51.30;31.90;;;12.60;99.90;;;12.08;100.00;102606.63;4185647;28;20124;-74
2021/10/11 07:55:15;;;;;;;45.47;29.98;;;12.70;99.90;;;12.11;100.00;102612.53;4167866;28;20044;-74
2021/10/11 07:57:16;;;;;;;49.92;30.50;;;12.70;99.90;;;12.13;100.00;102599.16;4185336;28;20036;-74
2021/10/11 07:59:17;;;;;;;50.63;27.85;;;12.80;99.90;;;12.09;100.00;102605.69;4185621;28;20036;-74
2021/10/11 08:01:18;;;;;;;44.33;27.98;;;12.80;99.90;;;12.08;100.00;102609.28;4184473;28;20028;-74
2021/10/11 08:03:22;;;;;;;118.70;31.33;;;12.80;99.90;;;11.92;100.00;102612.28;4184195;28;20087;-74
2021/10/11 08:05:23;;;;;;;40.47;28.83;;;12.80;99.90;;;12.07;100.00;102602.28;4185202;28;20021;-74
2021/10/11 08:07:24;;;;;;;59.30;30.10;;;12.80;99.90;;;12.08;100.00;102618.06;4184103;28;20033;-74
2021/10/11 08:09:25;;;;;;;38.08;27.30;;;12.90;99.90;;;12.14;100.00;102614.94;4183948;28;20025;-74